sensor_id;sensor_type;location;lat;lon;timestamp;pressure;altitude;pressure_sealevel;temperature;humidity
76694;BME280;69667;52.136;5.424;2023-07-28T00:00:08;100519.00;;;17.55;100.00
76694;BME280;69667;52.136;5.424;2023-07-28T00:02:39;100521.72;;;17.55;100.00
76694;BME280;69667;52.136;5.424;2023-07-28T00:05:07;100524.44;;;17.55;100.00
76694;BME280;69667;52.136;5.424;2023-07-28T00:07:35;100523.59;;;17.54;100.00
76694;BME280;69667;52.136;5.424;2023-07-28T00:10:04;100529.03;;;17.54;100.00
76694;BME280;69667;52.136;5.424;2023-07-28T00:12:32;100522.59;;;17.55;100.00
76694;BME280;69667;52.136;5.424;2023-07-28T00:15:00;100520.69;;;17.56;100.00
76694;BME280;69667;52.136;5.424;2023-07-28T00:17:29;100517.94;;;17.56;100.00
76694;BME280;69667;52.136;5.424;2023-07-28T00:19:57;100513.53;;;17.55;100.00
76694;BME280;69667;52.136;5.424;2023-07-28T00:22:25;100516.25;;;17.55;100.00
76694;BME280;69667;52.136;5.424;2023-07-28T00:24:53;100512.50;;;17.56;100.00
76694;BME280;69667;52.136;5.424;2023-07-28T00:27:22;100509.59;;;17.57;100.00
76694;BME280;69667;52.136;5.424;2023-07-28T00:29:50;100501.06;;;17.52;100.00
76694;BME280;69667;52.136;5.424;2023-07-28T00:32:19;100504.47;;;17.54;100.00
76694;BME280;69667;52.136;5.424;2023-07-28T00:34:47;100500.91;;;17.54;100.00
76694;BME280;69667;52.136;5.424;2023-07-28T00:37:16;100505.69;;;17.52;100.00
76694;BME280;69667;52.136;5.424;2023-07-28T00:39:45;100506.38;;;17.54;100.00
76694;BME280;69667;52.136;5.424;2023-07-28T00:42:13;100507.38;;;17.53;100.00
76694;BME280;69667;52.136;5.424;2023-07-28T00:44:41;100505.84;;;17.50;100.00
76694;BME280;69667;52.136;5.424;2023-07-28T00:47:10;100514.69;;;17.52;100.00
76694;BME280;69667;52.136;5.424;2023-07-28T00:49:39;100514.03;;;17.50;100.00
76694;BME280;69667;52.136;5.424;2023-07-28T00:52:08;100508.59;;;17.50;100.00
76694;BME280;69667;52.136;5.424;2023-07-28T00:54:36;100505.69;;;17.52;100.00
76694;BME280;69667;52.136;5.424;2023-07-28T00:57:05;100505.69;;;17.52;100.00
76694;BME280;69667;52.136;5.424;2023-07-28T00:59:34;100505.69;;;17.52;100.00
76694;BME280;69667;52.136;5.424;2023-07-28T01:02:03;100503.13;;;17.50;100.00
76694;BME280;69667;52.136;5.424;2023-07-28T01:04:31;100505.00;;;17.50;100.00
76694;BME280;69667;52.136;5.424;2023-07-28T01:07:08;100503.13;;;17.50;100.00
76694;BME280;69667;52.136;5.424;2023-07-28T01:09:52;100507.72;;;17.50;100.00
76694;BME280;69667;52.136;5.424;2023-07-28T01:12:24;100511.31;;;17.50;100.00
76694;BME280;69667;52.136;5.424;2023-07-28T01:14:53;100513.88;;;17.52;100.00
76694;BME280;69667;52.136;5.424;2023-07-28T01:17:21;100519.50;;;17.50;100.00
76694;BME280;69667;52.136;5.424;2023-07-28T01:19:51;100522.41;;;17.49;100.00
76694;BME280;69667;52.136;5.424;2023-07-28T01:27:42;100522.88;;;17.52;100.00
76694;BME280;69667;52.136;5.424;2023-07-28T01:30:11;100523.22;;;17.49;100.00
76694;BME280;69667;52.136;5.424;2023-07-28T01:32:39;100527.69;;;17.50;100.00
76694;BME280;69667;52.136;5.424;2023-07-28T01:35:08;100535.00;;;17.50;100.00
76694;BME280;69667;52.136;5.424;2023-07-28T01:37:36;100533.31;;;17.49;100.00
76694;BME280;69667;52.136;5.424;2023-07-28T01:40:05;100534.16;;;17.49;100.00
76694;BME280;69667;52.136;5.424;2023-07-28T01:42:33;100533.31;;;17.49;100.00
76694;BME280;69667;52.136;5.424;2023-07-28T01:45:02;100534.31;;;17.48;100.00
76694;BME280;69667;52.136;5.424;2023-07-28T01:47:30;100530.72;;;17.47;100.00
76694;BME280;69667;52.136;5.424;2023-07-28T01:49:59;100533.44;;;17.47;100.00
76694;BME280;69667;52.136;5.424;2023-07-28T01:52:27;100525.13;;;17.49;100.00
76694;BME280;69667;52.136;5.424;2023-07-28T01:54:55;100524.25;;;17.48;100.00
76694;BME280;69667;52.136;5.424;2023-07-28T01:57:23;100532.28;;;17.50;100.00
76694;BME280;69667;52.136;5.424;2023-07-28T01:59:54;100525.97;;;17.49;100.00
76694;BME280;69667;52.136;5.424;2023-07-28T02:02:23;100526.66;;;17.51;100.00
76694;BME280;69667;52.136;5.424;2023-07-28T02:04:51;100527.69;;;17.50;100.00
76694;BME280;69667;52.136;5.424;2023-07-28T02:07:19;100531.25;;;17.51;100.00
76694;BME280;69667;52.136;5.424;2023-07-28T02:09:47;100530.25;;;17.52;100.00
76694;BME280;69667;52.136;5.424;2023-07-28T02:12:16;100533.81;;;17.52;100.00
76694;BME280;69667;52.136;5.424;2023-07-28T02:14:44;100526.66;;;17.51;100.00
76694;BME280;69667;52.136;5.424;2023-07-28T02:17:12;100530.25;;;17.52;100.00
76694;BME280;69667;52.136;5.424;2023-07-28T02:19:41;100536.53;;;17.52;100.00
76694;BME280;69667;52.136;5.424;2023-07-28T02:22:09;100531.25;;;17.51;100.00
76694;BME280;69667;52.136;5.424;2023-07-28T02:24:38;100522.22;;;17.50;100.00
76694;BME280;69667;52.136;5.424;2023-07-28T02:27:07;100520.34;;;17.51;100.00
76694;BME280;69667;52.136;5.424;2023-07-28T02:29:35;100529.38;;;17.51;100.00
76694;BME280;69667;52.136;5.424;2023-07-28T02:32:03;100532.97;;;17.52;100.00
76694;BME280;69667;52.136;5.424;2023-07-28T02:34:32;100520.03;;;17.54;100.00
76694;BME280;69667;52.136;5.424;2023-07-28T02:37:00;100515.41;;;17.54;100.00
76694;BME280;69667;52.136;5.424;2023-07-28T02:39:28;100524.44;;;17.55;100.00
76694;BME280;69667;52.136;5.424;2023-07-28T02:41:56;100528.34;;;17.52;100.00
76694;BME280;69667;52.136;5.424;2023-07-28T02:44:24;100527.50;;;17.52;100.00
76694;BME280;69667;52.136;5.424;2023-07-28T02:46:53;100531.94;;;17.53;100.00
76694;BME280;69667;52.136;5.424;2023-07-28T02:49:21;100529.38;;;17.51;100.00
76694;BME280;69667;52.136;5.424;2023-07-28T02:51:49;100534.66;;;17.53;100.00
76694;BME280;69667;52.136;5.424;2023-07-28T02:54:17;100533.66;;;17.54;100.00
76694;BME280;69667;52.136;5.424;2023-07-28T02:56:46;100539.97;;;17.54;100.00
76694;BME280;69667;52.136;5.424;2023-07-28T02:59:15;100540.81;;;17.55;100.00
76694;BME280;69667;52.136;5.424;2023-07-28T03:01:43;100550.03;;;17.54;100.00
76694;BME280;69667;52.136;5.424;2023-07-28T03:04:12;100550.88;;;17.54;100.00
76694;BME280;69667;52.136;5.424;2023-07-28T03:07:13;100546.13;;;17.56;100.00
76694;BME280;69667;52.136;5.424;2023-07-28T03:09:43;100540.81;;;17.55;100.00
76694;BME280;69667;52.136;5.424;2023-07-28T03:12:12;100547.97;;;17.56;100.00
76694;BME280;69667;52.136;5.424;2023-07-28T03:14:41;100551.41;;;17.58;100.00
76694;BME280;69667;52.136;5.424;2023-07-28T03:17:09;100552.25;;;17.58;100.00
76694;BME280;69667;52.136;5.424;2023-07-28T03:19:37;100554.13;;;17.58;100.00
76694;BME280;69667;52.136;5.424;2023-07-28T03:22:06;100559.59;;;17.58;100.00
76694;BME280;69667;52.136;5.424;2023-07-28T03:24:34;100555.00;;;17.58;100.00
76694;BME280;69667;52.136;5.424;2023-07-28T03:27:03;100565.75;;;17.60;100.00
76694;BME280;69667;52.136;5.424;2023-07-28T03:29:31;100567.44;;;17.61;100.00
76694;BME280;69667;52.136;5.424;2023-07-28T03:31:59;100564.88;;;17.59;100.00
76694;BME280;69667;52.136;5.424;2023-07-28T03:34:28;100564.88;;;17.59;100.00
76694;BME280;69667;52.136;5.424;2023-07-28T03:36:58;100573.06;;;17.59;100.00
76694;BME280;69667;52.136;5.424;2023-07-28T03:39:26;100563.00;;;17.60;100.00
76694;BME280;69667;52.136;5.424;2023-07-28T03:41:54;100568.63;;;17.58;100.00
76694;BME280;69667;52.136;5.424;2023-07-28T03:44:23;100573.94;;;17.60;100.00
76694;BME280;69667;52.136;5.424;2023-07-28T03:46:51;100580.09;;;17.62;100.00
76694;BME280;69667;52.136;5.424;2023-07-28T03:49:19;100571.03;;;17.61;100.00
76694;BME280;69667;52.136;5.424;2023-07-28T03:51:48;100572.06;;;17.60;100.00
76694;BME280;69667;52.136;5.424;2023-07-28T03:54:16;100585.38;;;17.63;100.00
76694;BME280;69667;52.136;5.424;2023-07-28T03:56:48;100571.03;;;17.61;100.00
76694;BME280;69667;52.136;5.424;2023-07-28T03:59:16;100569.16;;;17.62;100.00
76694;BME280;69667;52.136;5.424;2023-07-28T04:01:45;100573.59;;;17.63;100.00
76694;BME280;69667;52.136;5.424;2023-07-28T04:04:13;100581.44;;;17.66;100.00
76694;BME280;69667;52.136;5.424;2023-07-28T04:06:46;100579.56;;;17.66;100.00
76694;BME280;69667;52.136;5.424;2023-07-28T04:09:16;100582.13;;;17.68;100.00
76694;BME280;69667;52.136;5.424;2023-07-28T04:11:45;100582.13;;;17.68;100.00
76694;BME280;69667;52.136;5.424;2023-07-28T04:14:13;100581.97;;;17.69;100.00
76694;BME280;69667;52.136;5.424;2023-07-28T04:16:42;100582.81;;;17.70;100.00
76694;BME280;69667;52.136;5.424;2023-07-28T04:19:13;100593.56;;;17.72;100.00
76694;BME280;69667;52.136;5.424;2023-07-28T04:21:41;100590.50;;;17.75;100.00
76694;BME280;69667;52.136;5.424;2023-07-28T04:24:09;100585.03;;;17.75;100.00
76694;BME280;69667;52.136;5.424;2023-07-28T04:26:44;100588.47;;;17.77;100.00
76694;BME280;69667;52.136;5.424;2023-07-28T04:29:17;100591.19;;;17.77;100.00
76694;BME280;69667;52.136;5.424;2023-07-28T04:31:45;100581.13;;;17.77;100.00
76694;BME280;69667;52.136;5.424;2023-07-28T04:34:18;100584.03;;;17.76;100.00
76694;BME280;69667;52.136;5.424;2023-07-28T04:37:03;100589.34;;;17.77;100.00
76694;BME280;69667;52.136;5.424;2023-07-28T04:39:54;100586.78;;;17.76;100.00
76694;BME280;69667;52.136;5.424;2023-07-28T04:42:22;100593.75;;;17.78;100.00
76694;BME280;69667;52.136;5.424;2023-07-28T04:44:51;100586.44;;;17.79;100.00
76694;BME280;69667;52.136;5.424;2023-07-28T04:47:19;100594.63;;;17.79;100.00
76694;BME280;69667;52.136;5.424;2023-07-28T04:49:47;100596.31;;;17.80;100.00
76694;BME280;69667;52.136;5.424;2023-07-28T04:52:54;100601.44;;;17.83;100.00
76694;BME280;69667;52.136;5.424;2023-07-28T04:55:42;100601.44;;;17.83;100.00
76694;BME280;69667;52.136;5.424;2023-07-28T04:58:10;100600.44;;;17.84;100.00
76694;BME280;69667;52.136;5.424;2023-07-28T05:00:50;100601.31;;;17.84;100.00
76694;BME280;69667;52.136;5.424;2023-07-28T05:03:18;100602.13;;;17.85;100.00
76694;BME280;69667;52.136;5.424;2023-07-28T05:05:56;100604.88;;;17.85;100.00
76694;BME280;69667;52.136;5.424;2023-07-28T05:08:24;100601.13;;;17.86;100.00
76694;BME280;69667;52.136;5.424;2023-07-28T05:10:53;100607.78;;;17.91;100.00
76694;BME280;69667;52.136;5.424;2023-07-28T05:13:21;100600.09;;;17.95;100.00
76694;BME280;69667;52.136;5.424;2023-07-28T05:15:54;100602.34;;;17.99;100.00
76694;BME280;69667;52.136;5.424;2023-07-28T05:18:48;100600.97;;;18.03;100.00
76694;BME280;69667;52.136;5.424;2023-07-28T05:21:42;100599.94;;;18.04;100.00
76694;BME280;69667;52.136;5.424;2023-07-28T05:24:13;100609.69;;;18.07;100.00
76694;BME280;69667;52.136;5.424;2023-07-28T05:26:41;100600.97;;;18.03;100.00
76694;BME280;69667;52.136;5.424;2023-07-28T05:29:10;100602.66;;;18.04;100.00
76694;BME280;69667;52.136;5.424;2023-07-28T05:31:38;100594.69;;;18.11;100.00
76694;BME280;69667;52.136;5.424;2023-07-28T05:34:16;100602.19;;;18.25;100.00
76694;BME280;69667;52.136;5.424;2023-07-28T05:36:45;100598.59;;;18.24;100.00
76694;BME280;69667;52.136;5.424;2023-07-28T05:39:13;100600.50;;;18.24;100.00
76694;BME280;69667;52.136;5.424;2023-07-28T05:41:44;100599.28;;;18.26;100.00
76694;BME280;69667;52.136;5.424;2023-07-28T05:44:14;100600.66;;;18.30;100.00
76694;BME280;69667;52.136;5.424;2023-07-28T05:46:42;100601.50;;;18.39;100.00
76694;BME280;69667;52.136;5.424;2023-07-28T05:49:12;100612.81;;;18.44;100.00
76694;BME280;69667;52.136;5.424;2023-07-28T05:51:40;100611.44;;;18.40;100.00
76694;BME280;69667;52.136;5.424;2023-07-28T05:54:12;100614.34;;;18.46;100.00
76694;BME280;69667;52.136;5.424;2023-07-28T05:56:44;100621.34;;;18.57;100.00
76694;BME280;69667;52.136;5.424;2023-07-28T05:59:13;100624.94;;;18.57;100.00
76694;BME280;69667;52.136;5.424;2023-07-28T06:01:42;100624.94;;;18.57;100.00
76694;BME280;69667;52.136;5.424;2023-07-28T06:04:28;100626.47;;;18.60;100.00
76694;BME280;69667;52.136;5.424;2023-07-28T06:06:59;100627.50;;;18.59;100.00
76694;BME280;69667;52.136;5.424;2023-07-28T06:09:27;100632.63;;;18.54;100.00
76694;BME280;69667;52.136;5.424;2023-07-28T06:11:56;100630.06;;;18.52;100.00
76694;BME280;69667;52.136;5.424;2023-07-28T06:14:26;100631.59;;;18.55;100.00
76694;BME280;69667;52.136;5.424;2023-07-28T06:16:56;100633.16;;;18.57;100.00
76694;BME280;69667;52.136;5.424;2023-07-28T06:19:28;100631.94;;;18.68;100.00
76694;BME280;69667;52.136;5.424;2023-07-28T06:21:57;100633.81;;;18.75;100.00
76694;BME280;69667;52.136;5.424;2023-07-28T06:24:25;100630.19;;;18.91;100.00
76694;BME280;69667;52.136;5.424;2023-07-28T06:26:54;100637.00;;;19.03;100.00
76694;BME280;69667;52.136;5.424;2023-07-28T06:29:22;100643.84;;;19.07;100.00
76694;BME280;69667;52.136;5.424;2023-07-28T06:31:50;100649.84;;;19.03;100.00
76694;BME280;69667;52.136;5.424;2023-07-28T06:34:19;100651.56;;;18.96;100.00
76694;BME280;69667;52.136;5.424;2023-07-28T06:36:47;100649.16;;;19.01;100.00
76694;BME280;69667;52.136;5.424;2023-07-28T06:39:15;100647.59;;;18.98;100.00
76694;BME280;69667;52.136;5.424;2023-07-28T06:41:44;100659.59;;;18.97;100.00
76694;BME280;69667;52.136;5.424;2023-07-28T06:44:13;100664.72;;;19.00;100.00
76694;BME280;69667;52.136;5.424;2023-07-28T06:46:42;100665.56;;;19.01;100.00
76694;BME280;69667;52.136;5.424;2023-07-28T06:49:12;100679.94;;;18.94;100.00
76694;BME280;69667;52.136;5.424;2023-07-28T06:51:40;100680.63;;;18.88;100.00
76694;BME280;69667;52.136;5.424;2023-07-28T06:54:11;100683.53;;;18.87;100.00
76694;BME280;69667;52.136;5.424;2023-07-28T06:56:40;100678.25;;;18.85;100.00
76694;BME280;69667;52.136;5.424;2023-07-28T06:59:08;100682.69;;;18.86;100.00
76694;BME280;69667;52.136;5.424;2023-07-28T07:01:45;100680.09;;;18.93;100.00
76694;BME280;69667;52.136;5.424;2023-07-28T07:04:14;100684.91;;;18.99;100.00
76694;BME280;69667;52.136;5.424;2023-07-28T07:06:42;100685.09;;;18.98;100.00
76694;BME280;69667;52.136;5.424;2023-07-28T07:09:10;100684.91;;;18.99;100.00
76694;BME280;69667;52.136;5.424;2023-07-28T07:11:42;100694.63;;;19.02;100.00
76694;BME280;69667;52.136;5.424;2023-07-28T07:14:10;100700.09;;;19.02;100.00
76694;BME280;69667;52.136;5.424;2023-07-28T07:16:38;100692.59;;;19.04;100.00
76694;BME280;69667;52.136;5.424;2023-07-28T07:19:06;100687.28;;;19.10;100.00
76694;BME280;69667;52.136;5.424;2023-07-28T07:21:36;100705.91;;;19.07;100.00
76694;BME280;69667;52.136;5.424;2023-07-28T07:24:04;100699.75;;;19.05;100.00
76694;BME280;69667;52.136;5.424;2023-07-28T07:26:33;100699.75;;;19.05;100.00
76694;BME280;69667;52.136;5.424;2023-07-28T07:29:01;100702.81;;;19.10;100.00
76694;BME280;69667;52.136;5.424;2023-07-28T07:31:30;100711.53;;;19.13;100.00
76694;BME280;69667;52.136;5.424;2023-07-28T07:33:58;100709.50;;;19.15;100.00
76694;BME280;69667;52.136;5.424;2023-07-28T07:36:27;100713.44;;;19.21;100.00
76694;BME280;69667;52.136;5.424;2023-07-28T07:38:55;100704.88;;;19.16;100.00
76694;BME280;69667;52.136;5.424;2023-07-28T07:41:23;100710.88;;;19.19;100.00
76694;BME280;69667;52.136;5.424;2023-07-28T07:43:54;100726.44;;;19.19;100.00
76694;BME280;69667;52.136;5.424;2023-07-28T07:46:23;100728.13;;;19.12;100.00
76694;BME280;69667;52.136;5.424;2023-07-28T07:48:51;100722.66;;;19.12;100.00
76694;BME280;69667;52.136;5.424;2023-07-28T07:51:20;100728.47;;;19.17;100.00
76694;BME280;69667;52.136;5.424;2023-07-28T07:53:48;100732.91;;;19.26;100.00
76694;BME280;69667;52.136;5.424;2023-07-28T07:56:16;100737.53;;;19.33;100.00
76694;BME280;69667;52.136;5.424;2023-07-28T07:58:45;100738.91;;;19.37;100.00
76694;BME280;69667;52.136;5.424;2023-07-28T08:01:13;100739.75;;;19.46;100.00
76694;BME280;69667;52.136;5.424;2023-07-28T08:03:42;100740.22;;;19.65;100.00
76694;BME280;69667;52.136;5.424;2023-07-28T08:06:10;100748.53;;;19.80;100.00
76694;BME280;69667;52.136;5.424;2023-07-28T08:08:39;100737.53;;;19.88;100.00
76694;BME280;69667;52.136;5.424;2023-07-28T08:11:11;100740.03;;;20.05;100.00
76694;BME280;69667;52.136;5.424;2023-07-28T08:13:39;100741.88;;;20.13;100.00
76694;BME280;69667;52.136;5.424;2023-07-28T08:16:08;100744.41;;;20.31;100.00
76694;BME280;69667;52.136;5.424;2023-07-28T08:18:36;100744.59;;;20.52;100.00
76694;BME280;69667;52.136;5.424;2023-07-28T08:21:04;100744.63;;;20.74;97.04
76694;BME280;69667;52.136;5.424;2023-07-28T08:23:32;100740.53;;;21.15;95.90
76694;BME280;69667;52.136;5.424;2023-07-28T08:26:01;100738.75;;;21.52;92.04
76694;BME280;69667;52.136;5.424;2023-07-28T08:28:29;100740.91;;;21.79;93.17
76694;BME280;69667;52.136;5.424;2023-07-28T08:30:57;100746.41;;;21.79;91.59
76694;BME280;69667;52.136;5.424;2023-07-28T08:33:26;100737.19;;;22.01;90.28
76694;BME280;69667;52.136;5.424;2023-07-28T08:35:54;100741.00;;;22.35;89.86
76694;BME280;69667;52.136;5.424;2023-07-28T08:38:23;100756.31;;;23.22;87.46
76694;BME280;69667;52.136;5.424;2023-07-28T08:40:51;100752.47;;;23.38;83.83
76694;BME280;69667;52.136;5.424;2023-07-28T08:43:19;100761.03;;;23.49;87.26
76694;BME280;69667;52.136;5.424;2023-07-28T08:45:47;100764.13;;;23.19;84.85
76694;BME280;69667;52.136;5.424;2023-07-28T08:48:15;100761.13;;;22.72;86.39
76694;BME280;69667;52.136;5.424;2023-07-28T08:50:44;100757.59;;;22.42;85.66
76694;BME280;69667;52.136;5.424;2023-07-28T08:53:12;100755.69;;;22.42;87.75
76694;BME280;69667;52.136;5.424;2023-07-28T08:55:40;100747.50;;;22.49;84.93
76694;BME280;69667;52.136;5.424;2023-07-28T08:58:15;100756.22;;;22.52;86.80
76694;BME280;69667;52.136;5.424;2023-07-28T09:00:43;100763.09;;;22.42;85.88
76694;BME280;69667;52.136;5.424;2023-07-28T09:03:11;100766.34;;;22.31;86.40
76694;BME280;69667;52.136;5.424;2023-07-28T09:05:39;100765.09;;;22.33;85.67
76694;BME280;69667;52.136;5.424;2023-07-28T09:08:07;100764.22;;;22.47;87.30
76694;BME280;69667;52.136;5.424;2023-07-28T09:13:11;100754.22;;;23.73;81.52
76694;BME280;69667;52.136;5.424;2023-07-28T09:15:44;100767.75;;;23.68;80.76
76694;BME280;69667;52.136;5.424;2023-07-28T09:18:15;100774.78;;;23.77;79.55
76694;BME280;69667;52.136;5.424;2023-07-28T09:20:44;100761.50;;;24.68;77.70
76694;BME280;69667;52.136;5.424;2023-07-28T09:23:14;100764.47;;;26.04;75.02
76694;BME280;69667;52.136;5.424;2023-07-28T09:25:43;100762.59;;;26.93;73.08
76694;BME280;69667;52.136;5.424;2023-07-28T09:28:11;100763.50;;;27.42;64.28
76694;BME280;69667;52.136;5.424;2023-07-28T09:30:48;100762.59;;;26.93;68.32
76694;BME280;69667;52.136;5.424;2023-07-28T09:33:30;100765.28;;;26.24;70.34
76694;BME280;69667;52.136;5.424;2023-07-28T09:36:15;100769.00;;;25.66;71.47
76694;BME280;69667;52.136;5.424;2023-07-28T09:38:45;100767.53;;;25.44;70.84
76694;BME280;69667;52.136;5.424;2023-07-28T09:41:13;100768.59;;;25.49;69.69
76694;BME280;69667;52.136;5.424;2023-07-28T09:43:42;100771.09;;;25.96;69.36
76694;BME280;69667;52.136;5.424;2023-07-28T09:46:12;100769.78;;;26.63;67.98
76694;BME280;69667;52.136;5.424;2023-07-28T09:48:45;100765.84;;;27.14;66.47
76694;BME280;69667;52.136;5.424;2023-07-28T09:51:18;100766.53;;;26.79;63.85
76694;BME280;69667;52.136;5.424;2023-07-28T09:53:59;100773.94;;;26.41;68.54
76694;BME280;69667;52.136;5.424;2023-07-28T09:56:30;100771.66;;;26.25;69.31
76694;BME280;69667;52.136;5.424;2023-07-28T09:59:01;100760.63;;;26.18;68.19
76694;BME280;69667;52.136;5.424;2023-07-28T10:01:31;100765.28;;;26.75;66.27
76694;BME280;69667;52.136;5.424;2023-07-28T10:04:01;100758.56;;;27.20;65.76
76694;BME280;69667;52.136;5.424;2023-07-28T10:06:29;100764.69;;;27.78;62.99
76694;BME280;69667;52.136;5.424;2023-07-28T10:08:59;100758.91;;;27.05;62.56
76694;BME280;69667;52.136;5.424;2023-07-28T10:11:27;100764.06;;;25.94;66.84
76694;BME280;69667;52.136;5.424;2023-07-28T10:13:57;100770.94;;;25.59;67.56
76694;BME280;69667;52.136;5.424;2023-07-28T10:16:37;100752.53;;;26.16;69.46
76694;BME280;69667;52.136;5.424;2023-07-28T10:19:08;100753.38;;;27.05;64.61
76694;BME280;69667;52.136;5.424;2023-07-28T10:21:40;100757.81;;;26.75;63.32
76694;BME280;69667;52.136;5.424;2023-07-28T10:24:11;100765.13;;;25.99;63.62
76694;BME280;69667;52.136;5.424;2023-07-28T10:26:41;100755.66;;;26.77;65.58
76694;BME280;69667;52.136;5.424;2023-07-28T10:29:14;100764.22;;;26.69;65.42
76694;BME280;69667;52.136;5.424;2023-07-28T10:31:53;100771.91;;;26.61;63.76
76694;BME280;69667;52.136;5.424;2023-07-28T10:34:22;100753.88;;;27.20;64.90
76694;BME280;69667;52.136;5.424;2023-07-28T10:37:00;100768.97;;;28.16;62.58
76694;BME280;69667;52.136;5.424;2023-07-28T10:39:28;100767.16;;;27.43;63.14
76694;BME280;69667;52.136;5.424;2023-07-28T10:42:04;100763.00;;;26.52;62.76
76694;BME280;69667;52.136;5.424;2023-07-28T10:44:33;100760.59;;;27.06;62.64
76694;BME280;69667;52.136;5.424;2023-07-28T10:47:02;100761.72;;;27.30;62.87
76694;BME280;69667;52.136;5.424;2023-07-28T10:49:35;100763.72;;;28.26;60.09
76694;BME280;69667;52.136;5.424;2023-07-28T10:52:03;100752.09;;;28.84;60.06
76694;BME280;69667;52.136;5.424;2023-07-28T10:54:32;100753.59;;;29.39;55.00
76694;BME280;69667;52.136;5.424;2023-07-28T10:57:03;100763.00;;;29.26;56.43
76694;BME280;69667;52.136;5.424;2023-07-28T10:59:35;100752.38;;;29.58;52.82
76694;BME280;69667;52.136;5.424;2023-07-28T11:02:03;100762.47;;;29.70;52.60
76694;BME280;69667;52.136;5.424;2023-07-28T11:04:31;100764.41;;;29.82;53.75
76694;BME280;69667;52.136;5.424;2023-07-28T11:07:00;100761.66;;;29.17;53.84
76694;BME280;69667;52.136;5.424;2023-07-28T11:09:28;100771.59;;;28.66;58.92
76694;BME280;69667;52.136;5.424;2023-07-28T11:11:56;100763.50;;;29.58;57.44
76694;BME280;69667;52.136;5.424;2023-07-28T11:14:25;100770.34;;;29.85;53.47
76694;BME280;69667;52.136;5.424;2023-07-28T11:16:53;100767.44;;;29.80;51.05
76694;BME280;69667;52.136;5.424;2023-07-28T11:19:21;100772.94;;;29.04;53.79
76694;BME280;69667;52.136;5.424;2023-07-28T11:21:54;100771.22;;;29.33;58.48
76694;BME280;69667;52.136;5.424;2023-07-28T11:24:23;100772.53;;;29.19;56.17
76694;BME280;69667;52.136;5.424;2023-07-28T11:26:51;100778.69;;;28.62;55.68
76694;BME280;69667;52.136;5.424;2023-07-28T11:29:20;100786.97;;;27.89;59.30
76694;BME280;69667;52.136;5.424;2023-07-28T11:31:49;100777.41;;;27.67;59.63
76694;BME280;69667;52.136;5.424;2023-07-28T11:34:19;100783.63;;;27.38;59.76
76694;BME280;69667;52.136;5.424;2023-07-28T11:36:47;100787.13;;;26.89;61.08
76694;BME280;69667;52.136;5.424;2023-07-28T11:39:16;100784.66;;;26.17;61.84
76694;BME280;69667;52.136;5.424;2023-07-28T11:41:45;100788.78;;;25.76;63.44
76694;BME280;69667;52.136;5.424;2023-07-28T11:44:15;100781.44;;;26.34;65.74
76694;BME280;69667;52.136;5.424;2023-07-28T11:46:44;100777.84;;;27.39;60.10
76694;BME280;69667;52.136;5.424;2023-07-28T11:49:17;100779.69;;;28.13;62.91
76694;BME280;69667;52.136;5.424;2023-07-28T11:51:54;100771.22;;;28.44;62.83
76694;BME280;69667;52.136;5.424;2023-07-28T11:54:25;100769.78;;;29.30;60.73
76694;BME280;69667;52.136;5.424;2023-07-28T11:56:56;100770.09;;;29.75;58.63
76694;BME280;69667;52.136;5.424;2023-07-28T11:59:25;100773.34;;;29.60;56.44
76694;BME280;69667;52.136;5.424;2023-07-28T12:02:02;100773.50;;;28.95;55.85
76694;BME280;69667;52.136;5.424;2023-07-28T12:04:38;100787.88;;;28.08;58.84
76694;BME280;69667;52.136;5.424;2023-07-28T12:07:14;100787.97;;;27.21;59.95
76694;BME280;69667;52.136;5.424;2023-07-28T12:12:24;100783.94;;;27.23;60.31
76694;BME280;69667;52.136;5.424;2023-07-28T12:15:01;100784.84;;;27.11;61.16
76694;BME280;69667;52.136;5.424;2023-07-28T12:20:44;100787.47;;;27.37;60.12
76694;BME280;69667;52.136;5.424;2023-07-28T12:23:20;100787.28;;;26.57;61.22
76694;BME280;69667;52.136;5.424;2023-07-28T12:25:51;100797.25;;;26.00;63.44
76694;BME280;69667;52.136;5.424;2023-07-28T12:28:23;100791.75;;;25.74;65.63
76694;BME280;69667;52.136;5.424;2023-07-28T12:30:53;100790.50;;;25.77;65.92
76694;BME280;69667;52.136;5.424;2023-07-28T12:33:23;100788.34;;;25.98;65.51
76694;BME280;69667;52.136;5.424;2023-07-28T12:36:05;100791.81;;;26.95;59.84
76694;BME280;69667;52.136;5.424;2023-07-28T12:38:36;100785.09;;;26.78;60.25
76694;BME280;69667;52.136;5.424;2023-07-28T12:41:07;100786.75;;;26.35;61.00
76694;BME280;69667;52.136;5.424;2023-07-28T12:43:36;100787.09;;;25.75;62.63
76694;BME280;69667;52.136;5.424;2023-07-28T12:46:08;100783.22;;;25.82;61.83
76694;BME280;69667;52.136;5.424;2023-07-28T12:48:38;100791.38;;;25.51;64.72
76694;BME280;69667;52.136;5.424;2023-07-28T12:51:09;100781.16;;;25.39;65.22
76694;BME280;69667;52.136;5.424;2023-07-28T12:53:38;100788.53;;;25.12;68.71
76694;BME280;69667;52.136;5.424;2023-07-28T12:56:06;100792.13;;;24.93;66.62
76694;BME280;69667;52.136;5.424;2023-07-28T12:58:34;100791.25;;;24.86;66.32
76694;BME280;69667;52.136;5.424;2023-07-28T13:01:05;100785.50;;;24.81;65.84
76694;BME280;69667;52.136;5.424;2023-07-28T13:03:35;100791.16;;;25.53;64.42
76694;BME280;69667;52.136;5.424;2023-07-28T13:06:04;100789.16;;;26.05;62.83
76694;BME280;69667;52.136;5.424;2023-07-28T13:08:32;100792.91;;;26.88;59.86
76694;BME280;69667;52.136;5.424;2023-07-28T13:11:03;100789.53;;;26.79;58.79